KAAO

Colonel James Jabara Airport

Wichita, Kansas, USA
METAR KAAO 201054Z AUTO 00000KT 10SM CLR M03/M03 A3032 RMK AO2 SLP281 T10281033
Observed Flight Rules
Nov-20 @ 10:54 UTC (56 minutes ago) Visual Flight Rules
Visibility Clouds
10 miles
  • Clear skies
Temperatures Readings
Current -3°C / 27°F
Dewpoint -3°C / 27°F
Humidity 100%
Altimeter 30.32" Hg
Pressure 1028.1 hPa
Elevation 434
METAR KAAO 201054Z AUTO 00000KT 10SM CLR M03/M03 A3032 RMK AO2 SLP281 T10281033
Observed Flight Rules
Nov-20 @ 10:54 UTC
(56 minutes ago)
VFR
Clouds
  • Clear skies
Temperature Dewpoint
-3°C / 27°F -3°C / 27°F
Humidity Altimeter Pressure
100% 30.32" Hg 1028.1 hPa